Detalii statie REFDANCOM [00001D06]

Condiții climatice – Creștere & Dezvoltare

Date Precipitatii [mm]HC Air temperature [C]HC Relative humidity [%]
sumamedieminmaxmedie
2018-10-10 20:00:00 0 13.55 12.94 14.34 0
2018-10-10 21:00:00 0 13.67 12.39 14.83 0
2018-10-10 22:00:00 0 14.19 13.27 14.91 0
2018-10-10 23:00:00 0 13.16 12.7 13.49 0
2018-10-11 00:00:00 0 12.11 11.16 13.33 0
2018-10-11 01:00:00 0 12.01 11.25 12.69 0
2018-10-11 02:00:00 0 12.49 11.66 13.03 0
2018-10-11 03:00:00 0 10.93 10.03 11.5 0
2018-10-11 04:00:00 0 8.94 8.19 9.66 0
2018-10-11 05:00:00 0 7.51 6.87 8.07 0
2018-10-11 06:00:00 0 6.77 6.13 7.3 0
2018-10-11 07:00:00 0 5.85 5.5 6.32 0
2018-10-11 08:00:00 0 6.71 5.84 8.23 0
2018-10-11 09:00:00 0 9.97 8.42 11.46 0
2018-10-11 10:00:00 0 12.7 11.67 13.98 0
2018-10-11 11:00:00 0 15.56 13.91 17.17 0
2018-10-11 12:00:00 0 17.34 16.66 18.26 0
2018-10-11 13:00:00 0 17.14 16 18.02 0
2018-10-11 14:00:00 0 15.91 15.42 17.1 0
2018-10-11 15:00:00 0 17.18 16.93 17.48 0
2018-10-11 16:00:00 0 17.71 16.97 18.34 0
2018-10-11 17:00:00 0.2 16.35 15.22 17.86 0
2018-10-11 18:00:00 0 14.6 13.96 15.25 0
2018-10-11 19:00:00 0 12.94 11.66 14.12 0
2018-10-11 20:00:00 0 11.47 10.9 11.96 0
2018-10-11 21:00:00 0 10.63 10.2 11.25 0
2018-10-11 22:00:00 0 9.85 9.23 10.35 0
2018-10-11 23:00:00 0 9.06 8.27 9.99 0
2018-10-12 00:00:00 0 8.32 7.49 9.12 0
2018-10-12 01:00:00 0 8.15 7.52 8.59 0
2018-10-12 02:00:00 0 8.32 7.19 9.02 0
2018-10-12 03:00:00 0 8.26 7.52 8.77 0
2018-10-12 04:00:00 0 7.29 6.55 7.5 0
2018-10-12 05:00:00 0 7.48 7.06 7.96 0
2018-10-12 06:00:00 0 7.38 6.97 7.91 0
2018-10-12 07:00:00 0 7.04 6.64 7.47 0
2018-10-12 08:00:00 0.2 8.16 7.26 9.62 0
2018-10-12 09:00:00 0 10 9.69 10.41 0
2018-10-12 10:00:00 0 12.37 10.67 14.21 0
2018-10-12 11:00:00 0 17.83 14.85 19.51 0
2018-10-12 12:00:00 0 20.95 18.95 22.14 0
2018-10-12 13:00:00 0 22.6 21.19 23.85 0
2018-10-12 14:00:00 0 23.62 22.76 24.34 0
2018-10-12 15:00:00 0 23.78 22.06 25.05 0
2018-10-12 16:00:00 0 23.41 22.15 24.09 0
2018-10-12 17:00:00 0 21.69 19.8 23.14 0
2018-10-12 18:00:00 0 17.8 16.58 19.34 0
2018-10-12 19:00:00 0 17.06 16.47 17.8 0